Time;durP1;ratioP1;P1;durP2;ratioP2;P2;SDS_P1;SDS_P2;PMS_P1;PMS_P2;Temp;Humidity;BMP_temperature;BMP_pressure;BME280_temperature;BME280_humidity;BME280_pressure;Samples;Min_cycle;Max_cycle;Signal;HPM_P1;HPM_P2
2023/10/29 00:02:26;;;;;;;0.70;0.60;;;10.60;99.90;;;;;;5094105;28;20472;-81
2023/10/29 00:04:53;;;;;;;1.53;0.70;;;10.60;99.90;;;;;;5094534;28;20463;-82
2023/10/29 00:07:19;;;;;;;0.50;0.50;;;10.50;99.90;;;;;;5094507;28;20455;-82
2023/10/29 00:09:46;;;;;;;0.40;0.40;;;10.60;99.90;;;;;;5094510;28;20829;-82
2023/10/29 00:12:14;;;;;;;1.23;0.40;;;10.60;99.90;;;;;;5094464;28;20471;-82
2023/10/29 00:14:41;;;;;;;2.30;0.50;;;10.60;99.90;;;;;;5094233;28;20495;-82
2023/10/29 00:17:08;;;;;;;0.50;0.50;;;10.60;99.90;;;;;;5094359;28;20440;-82
2023/10/29 00:19:35;;;;;;;0.70;0.50;;;10.70;99.90;;;;;;5094286;28;20440;-81
2023/10/29 00:22:02;;;;;;;0.60;0.60;;;10.60;99.90;;;;;;5094259;28;20493;-81
2023/10/29 00:24:28;;;;;;;1.03;0.60;;;10.70;99.90;;;;;;5094143;28;20467;-81
2023/10/29 00:26:55;;;;;;;1.13;0.50;;;10.70;99.90;;;;;;5094164;28;20467;-81
2023/10/29 00:29:23;;;;;;;0.40;0.30;;;10.80;99.90;;;;;;5093831;28;20814;-81
2023/10/29 00:31:51;;;;;;;0.90;0.43;;;10.90;99.90;;;;;;5094075;28;20822;-81
2023/10/29 00:34:18;;;;;;;0.70;0.40;;;10.80;99.90;;;;;;5093554;28;20511;-81
2023/10/29 00:36:44;;;;;;;0.50;0.50;;;10.80;99.90;;;;;;5093994;28;20452;-82
2023/10/29 00:39:11;;;;;;;1.17;0.67;;;10.90;99.90;;;;;;5093986;28;20444;-82
2023/10/29 00:41:38;;;;;;;0.73;0.73;;;10.80;99.90;;;;;;5093950;28;20444;-82
2023/10/29 00:44:05;;;;;;;0.50;0.50;;;10.70;99.90;;;;;;5093890;28;20811;-82
2023/10/29 00:46:33;;;;;;;0.50;0.50;;;10.70;99.90;;;;;;5094028;28;20444;-82
2023/10/29 00:49:00;;;;;;;2.50;0.60;;;10.80;99.90;;;;;;5093836;28;20444;-82
2023/10/29 00:51:27;;;;;;;1.23;0.40;;;10.70;99.90;;;;;;5093525;28;20428;-82
2023/10/29 00:53:54;;;;;;;0.40;0.30;;;10.80;99.90;;;;;;5093664;28;20517;-82
2023/10/29 00:56:21;;;;;;;0.40;0.30;;;10.70;99.90;;;;;;5093683;28;20490;-82
2023/10/29 00:58:48;;;;;;;1.00;0.83;;;10.80;99.90;;;;;;5093653;28;20470;-81
2023/10/29 01:01:15;;;;;;;0.80;0.40;;;10.80;99.90;;;;;;5093379;28;20540;-82
2023/10/29 01:03:43;;;;;;;0.70;0.63;;;10.90;99.90;;;;;;5093280;28;20995;-82
2023/10/29 01:06:11;;;;;;;1.33;0.50;;;10.90;99.90;;;;;;5093650;28;20416;-82
2023/10/29 01:08:38;;;;;;;0.40;0.30;;;10.90;99.90;;;;;;5093558;28;20435;-82
2023/10/29 01:11:07;;;;;;;1.03;0.50;;;11.00;99.90;;;;;;5092759;28;20818;-82
2023/10/29 01:13:33;;;;;;;0.40;0.40;;;11.10;99.90;;;;;;5093083;28;20987;-82
2023/10/29 01:16:02;;;;;;;0.30;0.30;;;11.10;99.90;;;;;;5093092;28;20840;-82
2023/10/29 01:18:28;;;;;;;0.60;0.60;;;11.10;99.90;;;;;;5093423;28;20440;-82
2023/10/29 01:20:56;;;;;;;0.87;0.33;;;11.10;99.90;;;;;;5093414;28;20451;-82
2023/10/29 01:23:23;;;;;;;0.50;0.40;;;11.20;99.90;;;;;;5093304;28;20883;-82
2023/10/29 01:25:51;;;;;;;1.77;0.60;;;11.10;99.90;;;;;;5093131;28;20444;-82
2023/10/29 01:28:18;;;;;;;0.60;0.50;;;11.10;99.90;;;;;;5093029;28;20997;-82
2023/10/29 01:30:45;;;;;;;0.60;0.40;;;11.10;99.90;;;;;;5093310;28;20448;-82
2023/10/29 01:33:11;;;;;;;0.50;0.50;;;11.10;99.90;;;;;;5093289;28;20469;-82
2023/10/29 01:35:38;;;;;;;0.40;0.40;;;11.00;99.90;;;;;;5093205;28;20483;-82
2023/10/29 01:38:06;;;;;;;0.87;0.40;;;11.00;99.90;;;;;;5093270;28;20447;-82
2023/10/29 01:40:33;;;;;;;0.70;0.40;;;11.00;99.90;;;;;;5093267;28;20819;-82
2023/10/29 01:43:00;;;;;;;0.77;0.50;;;11.00;99.90;;;;;;5093173;28;20500;-82
2023/10/29 01:45:26;;;;;;;1.50;0.50;;;10.90;99.90;;;;;;5093211;28;20818;-82
2023/10/29 01:47:53;;;;;;;3.03;0.60;;;10.90;99.90;;;;;;5092864;28;20447;-82
2023/10/29 01:50:20;;;;;;;2.17;0.80;;;10.90;99.90;;;;;;5093127;28;20455;-82
2023/10/29 01:52:47;;;;;;;0.40;0.33;;;10.90;99.90;;;;;;5092991;28;20447;-82
2023/10/29 01:55:16;;;;;;;0.83;0.60;;;11.00;99.90;;;;;;5092760;28;21019;-82
2023/10/29 01:57:42;;;;;;;0.97;0.40;;;10.90;99.90;;;;;;5093091;28;20447;-82
2023/10/29 02:00:10;;;;;;;0.50;0.50;;;10.90;99.90;;;;;;5093065;28;20467;-82
2023/10/29 02:02:37;;;;;;;0.43;0.40;;;10.90;99.90;;;;;;5092550;28;20484;-82
2023/10/29 02:05:04;;;;;;;0.73;0.53;;;11.00;99.90;;;;;;5092939;28;20486;-82
2023/10/29 02:07:32;;;;;;;0.70;0.47;;;11.00;99.90;;;;;;5092663;28;20447;-82
2023/10/29 02:09:59;;;;;;;1.50;1.03;;;11.00;99.90;;;;;;5092644;28;20452;-82
2023/10/29 02:12:27;;;;;;;0.93;0.40;;;11.00;99.90;;;;;;5092642;28;20937;-82
2023/10/29 02:14:54;;;;;;;0.40;0.30;;;11.00;99.90;;;;;;5092446;28;20847;-81
2023/10/29 02:17:23;;;;;;;0.50;0.40;;;10.90;99.90;;;;;;5092597;28;20970;-82
2023/10/29 02:19:50;;;;;;;0.50;0.40;;;10.90;99.90;;;;;;5092890;28;20448;-81
2023/10/29 02:22:18;;;;;;;0.50;0.40;;;10.90;99.90;;;;;;5094149;28;20443;-82
2023/10/29 02:24:45;;;;;;;1.43;0.40;;;10.90;99.90;;;;;;5096429;28;20464;-82
2023/10/29 02:27:12;;;;;;;0.40;0.40;;;10.90;99.90;;;;;;5096190;28;20932;-81
2023/10/29 02:29:38;;;;;;;0.40;0.30;;;10.90;99.90;;;;;;5096139;28;20936;-81
2023/10/29 02:32:06;;;;;;;1.90;0.50;;;10.90;99.90;;;;;;5096126;28;20940;-82
2023/10/29 02:34:33;;;;;;;0.80;0.40;;;10.90;99.90;;;;;;5096425;28;20507;-82
2023/10/29 02:37:00;;;;;;;0.50;0.40;;;10.80;99.90;;;;;;5096236;28;20488;-82
2023/10/29 02:39:28;;;;;;;1.33;0.93;;;10.80;99.90;;;;;;5096231;28;20444;-82
2023/10/29 02:41:54;;;;;;;0.80;0.50;;;10.80;99.90;;;;;;5096215;28;20440;-82
2023/10/29 02:44:21;;;;;;;1.00;0.50;;;10.80;99.90;;;;;;5096101;28;20472;-82
2023/10/29 02:46:48;;;;;;;0.50;0.40;;;10.70;99.90;;;;;;5095788;28;20440;-82
2023/10/29 02:49:15;;;;;;;2.00;1.40;;;10.60;99.90;;;;;;5096056;28;20452;-82
2023/10/29 02:51:42;;;;;;;0.43;0.43;;;10.70;99.90;;;;;;5095993;28;20493;-82
2023/10/29 02:54:09;;;;;;;0.90;0.50;;;10.50;99.90;;;;;;5095898;28;20466;-82
2023/10/29 02:56:37;;;;;;;0.50;0.47;;;10.50;99.90;;;;;;5095850;28;20476;-82
2023/10/29 02:59:04;;;;;;;0.70;0.50;;;10.60;99.90;;;;;;5096453;28;20487;-82
2023/10/29 03:01:31;;;;;;;1.00;0.70;;;10.40;99.90;;;;;;5095558;28;20480;-82
2023/10/29 03:03:57;;;;;;;0.40;0.40;;;10.30;99.90;;;;;;5095671;28;20521;-82
2023/10/29 03:06:24;;;;;;;0.53;0.53;;;10.30;99.90;;;;;;5095834;28;20616;-82
2023/10/29 03:08:51;;;;;;;0.53;0.40;;;10.30;99.90;;;;;;5095682;28;20440;-82
2023/10/29 03:11:17;;;;;;;0.60;0.50;;;10.20;99.90;;;;;;5095337;28;20444;-82
2023/10/29 03:13:46;;;;;;;2.73;0.40;;;10.20;99.90;;;;;;5095529;28;20478;-82
2023/10/29 03:16:12;;;;;;;0.70;0.50;;;10.10;99.90;;;;;;5095479;28;20850;-82
2023/10/29 03:18:39;;;;;;;1.10;0.40;;;10.10;99.90;;;;;;5095188;28;20809;-82
2023/10/29 03:21:06;;;;;;;0.57;0.43;;;10.10;99.90;;;;;;5095973;28;20451;-81
2023/10/29 03:23:33;;;;;;;0.40;0.30;;;10.00;99.90;;;;;;5095330;28;20470;-82
2023/10/29 03:26:03;;;;;;;0.87;0.77;;;9.90;99.90;;;;;;5095398;28;20439;-82
2023/10/29 03:28:30;;;;;;;3.70;0.83;;;9.90;99.90;;;;;;5095018;28;20451;-82
2023/10/29 03:30:58;;;;;;;1.03;0.70;;;9.90;99.90;;;;;;5095002;28;20997;-82
2023/10/29 03:33:25;;;;;;;0.40;0.40;;;9.90;99.90;;;;;;5094835;28;20474;-82
2023/10/29 03:35:52;;;;;;;0.40;0.40;;;9.90;99.90;;;;;;5094797;28;20483;-82
2023/10/29 03:38:18;;;;;;;0.67;0.40;;;9.90;99.90;;;;;;5095132;28;20452;-82
2023/10/29 03:40:45;;;;;;;0.80;0.50;;;9.90;99.90;;;;;;5095043;28;20448;-82
2023/10/29 03:43:12;;;;;;;0.40;0.40;;;10.00;99.90;;;;;;5094941;28;20972;-82
2023/10/29 03:45:39;;;;;;;4.53;0.47;;;10.00;99.90;;;;;;5095018;28;20443;-82
2023/10/29 03:48:07;;;;;;;1.33;0.53;;;10.00;99.90;;;;;;5094580;28;20455;-82
2023/10/29 03:50:34;;;;;;;0.80;0.50;;;10.10;99.90;;;;;;5094544;28;20960;-82
2023/10/29 03:53:00;;;;;;;13.33;0.77;;;10.10;99.90;;;;;;5094766;28;20448;-82
2023/10/29 03:55:27;;;;;;;0.40;0.40;;;10.10;99.90;;;;;;5094750;28;20440;-82
2023/10/29 03:57:54;;;;;;;1.60;0.60;;;10.10;99.90;;;;;;5094410;28;20819;-80
2023/10/29 04:00:22;;;;;;;0.40;0.40;;;10.30;99.90;;;;;;5094393;28;20807;-79
2023/10/29 04:02:49;;;;;;;0.40;0.30;;;10.20;99.90;;;;;;5094060;28;20536;-81
2023/10/29 04:05:17;;;;;;;1.80;0.50;;;10.30;99.90;;;;;;5094583;28;20451;-81
2023/10/29 04:07:44;;;;;;;0.50;0.40;;;10.40;99.90;;;;;;5094994;28;20437;-80
2023/10/29 04:10:11;;;;;;;0.40;0.33;;;10.40;99.90;;;;;;5094495;28;20452;-81
2023/10/29 04:12:38;;;;;;;0.50;0.40;;;10.40;99.90;;;;;;5094123;28;20972;-81
2023/10/29 04:15:05;;;;;;;5.43;0.60;;;10.50;99.90;;;;;;5094029;28;20464;-80
2023/10/29 04:17:32;;;;;;;0.50;0.50;;;10.50;99.90;;;;;;5094284;28;20476;-81
2023/10/29 04:19:59;;;;;;;2.10;0.50;;;10.50;99.90;;;;;;5094490;28;20440;-81
2023/10/29 04:22:27;;;;;;;0.50;0.50;;;10.50;99.90;;;;;;5093938;28;20787;-81
2023/10/29 04:24:54;;;;;;;0.40;0.40;;;10.60;99.90;;;;;;5093887;28;20464;-81
2023/10/29 04:27:21;;;;;;;0.40;0.30;;;10.60;99.90;;;;;;5094211;28;20447;-81
2023/10/29 04:29:48;;;;;;;0.50;0.40;;;10.60;99.90;;;;;;5094138;28;20474;-81
2023/10/29 04:32:14;;;;;;;0.43;0.43;;;10.70;99.90;;;;;;5094104;28;20436;-81
2023/10/29 04:34:41;;;;;;;2.43;0.40;;;10.60;99.90;;;;;;5094012;28;20460;-81
2023/10/29 04:37:08;;;;;;;1.60;0.53;;;10.60;99.90;;;;;;5093597;28;20476;-80
2023/10/29 04:39:36;;;;;;;0.40;0.40;;;10.60;99.90;;;;;;5093987;28;20439;-80
2023/10/29 04:42:04;;;;;;;0.40;0.30;;;10.60;99.90;;;;;;5093947;28;20858;-81
2023/10/29 04:44:31;;;;;;;0.43;0.43;;;10.50;99.90;;;;;;5093203;28;20468;-81
2023/10/29 04:46:58;;;;;;;0.40;0.40;;;10.50;99.90;;;;;;5093859;28;20440;-81
2023/10/29 04:49:26;;;;;;;0.40;0.37;;;10.40;99.90;;;;;;5094302;28;20485;-81
2023/10/29 04:51:53;;;;;;;1.00;0.40;;;10.40;99.90;;;;;;5093779;28;20910;-81
2023/10/29 04:54:20;;;;;;;0.40;0.40;;;10.40;99.90;;;;;;5093726;28;20588;-81
2023/10/29 04:56:48;;;;;;;0.60;0.40;;;10.30;99.90;;;;;;5093624;28;20476;-81
2023/10/29 04:59:15;;;;;;;0.50;0.30;;;10.20;99.90;;;;;;5093660;28;20439;-80
2023/10/29 05:01:41;;;;;;;0.60;0.40;;;10.30;99.90;;;;;;5093466;28;20490;-81
2023/10/29 05:04:08;;;;;;;0.40;0.40;;;10.30;99.90;;;;;;5093292;28;20470;-81
2023/10/29 05:06:36;;;;;;;0.43;0.30;;;10.20;99.90;;;;;;5093371;28;20997;-81
2023/10/29 05:09:03;;;;;;;2.40;0.80;;;10.20;99.90;;;;;;5093544;28;20439;-80
2023/10/29 05:11:31;;;;;;;0.50;0.50;;;10.20;99.90;;;;;;5093527;28;20451;-81
2023/10/29 05:13:59;;;;;;;0.40;0.40;;;10.20;99.90;;;;;;5093426;28;20550;-81
2023/10/29 05:16:25;;;;;;;0.50;0.30;;;10.10;99.90;;;;;;5093434;28;20472;-81
2023/10/29 05:18:53;;;;;;;0.50;0.40;;;10.10;99.90;;;;;;5093496;28;20436;-81
2023/10/29 05:21:20;;;;;;;0.40;0.40;;;10.10;99.90;;;;;;5093385;28;20493;-81
2023/10/29 05:23:47;;;;;;;0.60;0.40;;;10.10;99.90;;;;;;5093345;28;20555;-81
2023/10/29 05:26:14;;;;;;;0.37;0.30;;;10.10;99.90;;;;;;5093411;28;20443;-81
2023/10/29 05:28:41;;;;;;;1.43;0.40;;;10.10;99.90;;;;;;5093374;28;20459;-81
2023/10/29 05:31:09;;;;;;;8.80;0.50;;;10.10;99.90;;;;;;5093371;28;20447;-81
2023/10/29 05:33:36;;;;;;;0.60;0.40;;;10.10;99.90;;;;;;5093289;28;20546;-81
2023/10/29 05:36:03;;;;;;;1.10;0.63;;;10.20;99.90;;;;;;5092870;28;20813;-81
2023/10/29 05:38:30;;;;;;;0.40;0.30;;;10.20;99.90;;;;;;5092966;28;20933;-80
2023/10/29 05:40:57;;;;;;;0.40;0.40;;;10.20;99.90;;;;;;5092992;28;20440;-80
2023/10/29 05:43:24;;;;;;;1.63;0.50;;;10.30;99.90;;;;;;5093161;28;20472;-80
2023/10/29 05:45:50;;;;;;;1.10;0.70;;;10.30;99.90;;;;;;5093191;28;20457;-80
2023/10/29 05:48:19;;;;;;;0.87;0.60;;;10.30;99.90;;;;;;5092888;28;20940;-80
2023/10/29 05:50:45;;;;;;;0.50;0.40;;;10.30;99.90;;;;;;5092889;28;20957;-81
2023/10/29 05:53:12;;;;;;;0.50;0.50;;;10.30;99.90;;;;;;5093032;28;20468;-80
2023/10/29 05:55:40;;;;;;;1.53;0.50;;;10.40;99.90;;;;;;5093517;28;20440;-81
2023/10/29 05:58:07;;;;;;;1.30;0.50;;;10.40;99.90;;;;;;5096694;28;20528;-80
2023/10/29 06:00:33;;;;;;;0.60;0.40;;;10.50;99.90;;;;;;5097007;28;20436;-80
2023/10/29 06:03:00;;;;;;;0.50;0.37;;;10.50;99.90;;;;;;5096422;28;20483;-81
2023/10/29 06:05:28;;;;;;;1.00;0.50;;;10.50;99.90;;;;;;5096982;28;20444;-81
2023/10/29 06:07:56;;;;;;;0.40;0.40;;;10.60;99.90;;;;;;5096859;28;20453;-82
2023/10/29 06:10:22;;;;;;;0.50;0.43;;;10.60;99.90;;;;;;5096849;28;20448;-81
2023/10/29 06:12:49;;;;;;;0.43;0.43;;;10.60;99.90;;;;;;5096716;28;20444;-81
2023/10/29 06:15:16;;;;;;;0.40;0.30;;;10.60;99.90;;;;;;5096461;28;20447;-81
2023/10/29 06:17:43;;;;;;;0.93;0.70;;;10.60;99.90;;;;;;5096611;28;20483;-81
2023/10/29 06:20:11;;;;;;;0.50;0.50;;;10.60;99.90;;;;;;5096650;28;20440;-81
2023/10/29 06:22:39;;;;;;;0.40;0.40;;;10.70;99.90;;;;;;5096656;28;20440;-81
2023/10/29 06:25:10;;;;;;;0.33;0.30;;;10.70;99.90;;;;;;5096154;28;20479;-81
2023/10/29 06:27:37;;;;;;;0.97;0.60;;;10.70;99.90;;;;;;5096541;28;20428;-81
2023/10/29 06:30:05;;;;;;;0.50;0.50;;;10.70;99.90;;;;;;5096453;28;20444;-81
2023/10/29 06:32:32;;;;;;;0.97;0.57;;;10.80;99.90;;;;;;5096389;28;20450;-81
2023/10/29 06:34:58;;;;;;;1.60;0.70;;;10.80;99.90;;;;;;5096311;28;20459;-81
2023/10/29 06:37:25;;;;;;;1.57;0.90;;;10.90;99.90;;;;;;5096204;28;20487;-81
2023/10/29 06:39:53;;;;;;;0.60;0.60;;;11.00;99.90;;;;;;5095986;28;20447;-81
2023/10/29 06:42:20;;;;;;;1.70;0.60;;;11.00;99.90;;;;;;5096230;28;20436;-81
2023/10/29 06:44:47;;;;;;;0.40;0.40;;;11.00;99.90;;;;;;5096222;28;20487;-81
2023/10/29 06:47:14;;;;;;;2.10;0.60;;;11.00;99.90;;;;;;5095841;28;20816;-81
2023/10/29 06:49:41;;;;;;;0.30;0.30;;;11.10;99.90;;;;;;5095751;28;20940;-81
2023/10/29 06:52:08;;;;;;;1.50;0.40;;;11.10;99.90;;;;;;5096019;28;20455;-81
2023/10/29 06:54:35;;;;;;;0.40;0.40;;;11.10;99.90;;;;;;5095794;28;20479;-80
2023/10/29 06:57:05;;;;;;;0.30;0.30;;;11.20;99.90;;;;;;5095908;28;20476;-80
2023/10/29 06:59:33;;;;;;;0.30;0.30;;;11.20;99.90;;;;;;5095608;28;20462;-81
2023/10/29 07:02:00;;;;;;;0.60;0.43;;;11.30;99.90;;;;;;5095539;28;20514;-81
2023/10/29 07:04:27;;;;;;;0.60;0.43;;;11.30;99.90;;;;;;5095683;28;20468;-81
2023/10/29 07:06:53;;;;;;;0.50;0.47;;;11.40;99.90;;;;;;5095767;28;20435;-81
2023/10/29 07:09:20;;;;;;;1.23;0.60;;;11.40;99.90;;;;;;5095044;28;20440;-81
2023/10/29 07:11:47;;;;;;;1.43;0.43;;;11.50;99.90;;;;;;5095344;28;20801;-81
2023/10/29 07:14:15;;;;;;;0.63;0.50;;;11.50;99.90;;;;;;5095249;28;20460;-81
2023/10/29 07:16:43;;;;;;;0.60;0.60;;;11.50;99.90;;;;;;5095493;28;20945;-81
2023/10/29 07:19:10;;;;;;;0.40;0.40;;;11.50;99.90;;;;;;5095276;28;20446;-81
2023/10/29 07:21:37;;;;;;;0.40;0.30;;;11.50;99.90;;;;;;5095161;28;20790;-81
2023/10/29 07:24:08;;;;;;;0.50;0.40;;;11.60;99.90;;;;;;5095350;28;20464;-81
2023/10/29 07:26:35;;;;;;;0.50;0.40;;;11.70;99.90;;;;;;5095363;28;20530;-81
2023/10/29 07:29:02;;;;;;;7.50;0.60;;;11.70;99.90;;;;;;5095335;28;20451;-81
2023/10/29 07:31:30;;;;;;;2.00;0.80;;;11.70;99.90;;;;;;5095244;28;20447;-81
2023/10/29 07:33:57;;;;;;;0.50;0.50;;;11.80;99.90;;;;;;5095024;28;20472;-81
2023/10/29 07:36:23;;;;;;;0.40;0.40;;;11.90;99.90;;;;;;5095262;28;20448;-81
2023/10/29 07:38:50;;;;;;;0.50;0.40;;;12.00;99.90;;;;;;5094733;28;20467;-81
2023/10/29 07:41:19;;;;;;;1.20;0.50;;;12.00;99.90;;;;;;5095060;28;20420;-81
2023/10/29 07:43:46;;;;;;;1.30;0.60;;;12.10;99.90;;;;;;5094946;28;20513;-82
2023/10/29 07:46:13;;;;;;;1.23;0.60;;;12.10;99.90;;;;;;5094964;28;20432;-81
2023/10/29 07:48:42;;;;;;;0.47;0.47;;;12.10;99.90;;;;;;5094915;28;20503;-81
2023/10/29 07:51:09;;;;;;;0.97;0.53;;;12.20;99.90;;;;;;5094450;28;20448;-81
2023/10/29 07:53:36;;;;;;;0.60;0.43;;;12.20;99.90;;;;;;5094893;28;20464;-81
2023/10/29 07:56:10;;;;;;;0.47;0.47;;;12.20;99.90;;;;;;5094456;28;20447;-81
2023/10/29 07:58:37;;;;;;;0.90;0.50;;;12.40;99.90;;;;;;5094648;28;20487;-81
2023/10/29 08:01:10;;;;;;;0.40;0.40;;;12.50;99.90;;;;;;5094200;28;20440;-82
2023/10/29 08:03:37;;;;;;;3.50;0.53;;;12.60;99.90;;;;;;5094569;28;20464;-81
2023/10/29 08:06:05;;;;;;;0.50;0.43;;;12.60;99.90;;;;;;5094643;28;20443;-81
2023/10/29 08:08:32;;;;;;;1.27;0.43;;;12.60;99.90;;;;;;5094191;28;20444;-81
2023/10/29 08:10:59;;;;;;;0.60;0.50;;;12.80;99.90;;;;;;5094421;28;20440;-81
2023/10/29 08:13:25;;;;;;;0.80;0.60;;;12.80;99.90;;;;;;5094403;28;20476;-81
2023/10/29 08:15:52;;;;;;;0.40;0.40;;;12.80;99.90;;;;;;5094086;28;20881;-81
2023/10/29 08:18:19;;;;;;;0.47;0.30;;;12.80;99.90;;;;;;5094305;28;20490;-81
2023/10/29 08:20:46;;;;;;;0.70;0.40;;;12.90;99.90;;;;;;5093385;28;20436;-81
2023/10/29 08:23:14;;;;;;;0.50;0.50;;;12.90;99.90;;;;;;5094196;28;20490;-81
2023/10/29 08:25:40;;;;;;;0.40;0.30;;;13.00;99.90;;;;;;5093953;28;20826;-81
2023/10/29 08:28:09;;;;;;;0.60;0.50;;;13.10;99.90;;;;;;5094182;28;20497;-81
2023/10/29 08:30:35;;;;;;;0.50;0.47;;;13.10;99.90;;;;;;5094287;28;20441;-81
2023/10/29 08:33:02;;;;;;;0.40;0.40;;;13.10;99.90;;;;;;5094007;28;20444;-81
2023/10/29 08:35:29;;;;;;;0.70;0.40;;;13.10;99.90;;;;;;5094049;28;20806;-81
2023/10/29 08:37:57;;;;;;;0.80;0.50;;;13.20;99.90;;;;;;5094106;28;20487;-81
2023/10/29 08:40:25;;;;;;;1.70;0.60;;;13.30;99.90;;;;;;5093904;28;20451;-81
2023/10/29 08:42:52;;;;;;;0.63;0.50;;;13.30;99.90;;;;;;5093813;28;20447;-81
2023/10/29 08:45:20;;;;;;;0.43;0.43;;;13.40;99.90;;;;;;5094683;28;20444;-81
2023/10/29 08:47:46;;;;;;;0.40;0.40;;;13.40;99.90;;;;;;5093839;28;20483;-81
2023/10/29 08:50:13;;;;;;;0.60;0.50;;;13.40;99.90;;;;;;5093801;28;20451;-81
2023/10/29 08:52:40;;;;;;;0.50;0.50;;;13.50;99.90;;;;;;5093488;28;20810;-81
2023/10/29 08:55:08;;;;;;;0.40;0.40;;;13.50;99.90;;;;;;5093369;28;21014;-81
2023/10/29 08:57:36;;;;;;;0.50;0.50;;;13.50;99.90;;;;;;5093557;28;20890;-82
2023/10/29 09:00:04;;;;;;;1.30;0.47;;;13.40;99.90;;;;;;5093648;28;20439;-81
2023/10/29 09:02:31;;;;;;;0.70;0.70;;;13.40;99.90;;;;;;5093536;28;20541;-81
2023/10/29 09:04:57;;;;;;;0.70;0.53;;;13.40;99.90;;;;;;5093521;28;20517;-81
2023/10/29 09:07:25;;;;;;;0.97;0.70;;;13.40;99.90;;;;;;5093543;28;20513;-81
2023/10/29 09:09:53;;;;;;;4.30;1.43;;;13.40;99.90;;;;;;5093533;28;20439;-81
2023/10/29 09:12:19;;;;;;;0.50;0.50;;;13.50;99.90;;;;;;5093489;28;20447;-81
2023/10/29 09:14:47;;;;;;;0.70;0.70;;;13.50;99.90;;;;;;5093123;28;21003;-81
2023/10/29 09:17:14;;;;;;;0.50;0.50;;;13.70;99.90;;;;;;5093037;28;20971;-81
2023/10/29 09:19:41;;;;;;;0.70;0.40;;;13.80;99.90;;;;;;5093375;28;20448;-81
2023/10/29 09:22:08;;;;;;;0.50;0.50;;;14.10;99.90;;;;;;5093339;28;20451;-82
2023/10/29 09:24:34;;;;;;;0.50;0.40;;;14.20;99.90;;;;;;5093313;28;20471;-82
2023/10/29 09:27:01;;;;;;;0.53;0.40;;;14.30;99.90;;;;;;5093046;28;20816;-81
2023/10/29 09:29:29;;;;;;;0.50;0.40;;;14.30;99.90;;;;;;5093334;28;20526;-81
2023/10/29 09:31:58;;;;;;;0.70;0.50;;;14.20;99.90;;;;;;5095648;28;20964;-81
2023/10/29 09:34:25;;;;;;;0.50;0.50;;;14.20;99.90;;;;;;5097142;28;20472;-81
2023/10/29 09:36:51;;;;;;;1.00;0.53;;;14.20;99.90;;;;;;5097446;28;20443;-81
2023/10/29 09:39:18;;;;;;;1.23;0.70;;;14.10;99.90;;;;;;5097336;28;20483;-82
2023/10/29 09:41:46;;;;;;;0.40;0.40;;;14.20;99.90;;;;;;5097331;28;20538;-81
2023/10/29 09:44:17;;;;;;;1.27;0.77;;;14.30;99.90;;;;;;5097223;28;20475;-81
2023/10/29 09:46:46;;;;;;;0.70;0.60;;;14.50;99.90;;;;;;5096841;28;20929;-81
2023/10/29 09:49:15;;;;;;;2.57;0.60;;;14.60;99.90;;;;;;5097061;28;20442;-81
2023/10/29 09:51:42;;;;;;;0.90;0.60;;;14.70;99.90;;;;;;5097060;28;20436;-81
2023/10/29 09:54:09;;;;;;;0.57;0.50;;;14.80;99.90;;;;;;5096685;28;20984;-79
2023/10/29 09:56:37;;;;;;;1.90;0.57;;;14.80;99.90;;;;;;5097624;28;20447;-79
2023/10/29 09:59:06;;;;;;;0.40;0.33;;;14.90;99.90;;;;;;5096649;28;20888;-79
2023/10/29 10:01:34;;;;;;;0.50;0.37;;;14.80;99.90;;;;;;5096371;28;20983;-82
2023/10/29 10:04:01;;;;;;;2.70;0.60;;;14.80;99.90;;;;;;5096444;28;20459;-81
2023/10/29 10:06:29;;;;;;;3.13;0.60;;;14.80;99.90;;;;;;5096720;28;20820;-81
2023/10/29 10:08:57;;;;;;;0.80;0.50;;;14.90;99.90;;;;;;5096339;28;20523;-81
2023/10/29 10:11:24;;;;;;;2.60;0.57;;;14.90;99.90;;;;;;5096696;28;20466;-81
2023/10/29 10:13:52;;;;;;;1.80;0.57;;;15.00;99.90;;;;;;5096348;28;20463;-81
2023/10/29 10:16:20;;;;;;;0.57;0.57;;;15.00;99.90;;;;;;5096364;28;20444;-81
2023/10/29 10:18:54;;;;;;;0.40;0.37;;;15.10;99.90;;;;;;5096331;28;20491;-81
2023/10/29 10:21:23;;;;;;;0.93;0.50;;;15.20;99.90;;;;;;5096614;28;20478;-81
2023/10/29 10:23:52;;;;;;;1.03;0.70;;;15.30;99.90;;;;;;5096153;28;20960;-81
2023/10/29 10:26:30;;;;;;;0.60;0.50;;;15.30;99.90;;;;;;5096201;28;20440;-81
2023/10/29 10:28:58;;;;;;;0.40;0.40;;;15.40;99.90;;;;;;5096176;28;20492;-81
2023/10/29 10:31:27;;;;;;;0.70;0.70;;;15.40;99.90;;;;;;5096128;28;20435;-81
2023/10/29 10:34:09;;;;;;;0.40;0.40;;;15.40;99.90;;;;;;5096032;28;20470;-81
2023/10/29 10:36:36;;;;;;;0.50;0.50;;;15.50;99.90;;;;;;5096096;28;20424;-81
2023/10/29 10:39:05;;;;;;;0.40;0.40;;;15.60;99.90;;;;;;5096237;28;20471;-81
2023/10/29 10:41:43;;;;;;;1.30;0.40;;;15.80;99.90;;;;;;5095955;28;20805;-81
2023/10/29 10:44:12;;;;;;;2.27;0.60;;;15.90;99.90;;;;;;5094856;28;20559;-81
2023/10/29 10:46:47;;;;;;;0.40;0.40;;;16.00;99.90;;;;;;5095803;28;20444;-82
2023/10/29 10:49:14;;;;;;;3.37;0.50;;;16.00;99.90;;;;;;5096442;28;20448;-81
2023/10/29 10:51:42;;;;;;;0.60;0.47;;;16.10;99.90;;;;;;5095766;28;20456;-82
2023/10/29 10:54:10;;;;;;;0.70;0.47;;;16.20;99.90;;;;;;5095694;28;20471;-80
2023/10/29 10:56:38;;;;;;;0.40;0.40;;;16.20;99.90;;;;;;5095963;28;20436;-81
2023/10/29 10:59:05;;;;;;;1.67;0.50;;;16.30;99.90;;;;;;5095532;28;20478;-81
2023/10/29 11:01:33;;;;;;;0.40;0.40;;;16.30;99.90;;;;;;5095282;28;20486;-82
2023/10/29 11:04:01;;;;;;;0.83;0.50;;;16.30;99.90;;;;;;5095742;28;20889;-82
2023/10/29 11:06:29;;;;;;;0.73;0.57;;;16.30;99.90;;;;;;5095500;28;20501;-82
2023/10/29 11:08:56;;;;;;;0.80;0.40;;;16.30;99.90;;;;;;5095722;28;20440;-81
2023/10/29 11:11:29;;;;;;;2.40;1.43;;;16.20;99.90;;;;;;5095360;28;20440;-81
2023/10/29 11:14:15;;;;;;;0.60;0.60;;;16.10;99.90;;;;;;5095329;28;20471;-81
2023/10/29 11:16:51;;;;;;;1.30;0.67;;;16.10;99.90;;;;;;5085458;28;20505;-82
2023/10/29 11:19:43;;;;;;;0.67;0.60;;;16.10;99.90;;;;;;5095133;28;21018;-81
2023/10/29 11:22:29;;;;;;;1.17;0.90;;;16.10;99.90;;;;;;5095178;28;20906;-81
2023/10/29 11:25:39;;;;;;;0.60;0.60;;;16.00;99.90;;;;;;5095079;28;20509;-82
2023/10/29 11:28:27;;;;;;;1.30;0.60;;;15.90;99.90;;;;;;5095355;28;20424;-82
2023/10/29 11:31:13;;;;;;;1.10;0.50;;;16.00;99.90;;;;;;5094917;28;20440;-82
2023/10/29 11:33:41;;;;;;;1.53;0.60;;;16.00;99.90;;;;;;5095219;28;20464;-82
2023/10/29 11:36:31;;;;;;;0.80;0.50;;;16.20;99.90;;;;;;5094909;28;20444;-82
2023/10/29 11:39:31;;;;;;;0.47;0.47;;;16.30;99.90;;;;;;5094850;28;21000;-82
2023/10/29 11:41:59;;;;;;;1.27;0.40;;;16.50;99.90;;;;;;5095112;28;20787;-82
2023/10/29 11:44:29;;;;;;;0.40;0.40;;;16.60;99.90;;;;;;5094668;28;20563;-81
2023/10/29 11:47:06;;;;;;;1.90;0.60;;;16.60;99.90;;;;;;5094668;28;20477;-82
2023/10/29 11:50:12;;;;;;;0.60;0.57;;;16.70;99.90;;;;;;5094575;28;20944;-81
2023/10/29 11:52:43;;;;;;;0.70;0.50;;;16.80;99.90;;;;;;5094796;28;20849;-81
2023/10/29 11:55:12;;;;;;;0.50;0.50;;;16.80;99.90;;;;;;5094277;28;20980;-82
2023/10/29 11:57:44;;;;;;;1.47;0.53;;;16.80;99.90;;;;;;5094417;28;20444;-82
2023/10/29 12:00:13;;;;;;;0.50;0.40;;;16.80;99.90;;;;;;5094434;28;20460;-81
2023/10/29 12:02:43;;;;;;;0.50;0.40;;;16.80;99.90;;;;;;5094196;28;20482;-82
2023/10/29 12:05:11;;;;;;;0.40;0.40;;;16.70;99.90;;;;;;5094312;28;20467;-82
2023/10/29 12:07:38;;;;;;;1.43;0.50;;;16.70;99.90;;;;;;5094225;28;20471;-81
2023/10/29 12:10:06;;;;;;;2.07;0.70;;;16.60;99.90;;;;;;5094240;28;20444;-81
2023/10/29 12:12:33;;;;;;;0.60;0.40;;;16.60;99.90;;;;;;5094245;28;20436;-81
2023/10/29 12:15:00;;;;;;;0.40;0.40;;;16.60;99.90;;;;;;5094080;28;20964;-82
2023/10/29 12:17:28;;;;;;;0.50;0.50;;;16.60;99.90;;;;;;5094392;28;20444;-81
2023/10/29 12:19:56;;;;;;;0.60;0.60;;;16.60;99.90;;;;;;5094010;28;20494;-82
2023/10/29 12:22:23;;;;;;;0.70;0.50;;;16.70;99.90;;;;;;5093983;28;20497;-83
2023/10/29 12:24:53;;;;;;;0.77;0.60;;;16.70;99.90;;;;;;5093890;28;20464;-81
2023/10/29 12:27:21;;;;;;;2.77;0.50;;;16.70;99.90;;;;;;5093903;28;20952;-81
2023/10/29 12:29:48;;;;;;;1.00;0.50;;;16.80;99.90;;;;;;5094197;28;20506;-81
2023/10/29 12:32:18;;;;;;;1.47;0.57;;;16.80;99.90;;;;;;5093945;28;20859;-81
2023/10/29 12:34:51;;;;;;;2.17;0.70;;;16.80;99.90;;;;;;5094082;28;20467;-82
2023/10/29 12:37:26;;;;;;;0.50;0.50;;;16.80;99.90;;;;;;5093733;28;20444;-82
2023/10/29 12:39:55;;;;;;;1.27;0.50;;;16.80;99.90;;;;;;5093908;28;20489;-82
2023/10/29 12:42:23;;;;;;;1.23;0.40;;;16.80;99.90;;;;;;5093950;28;20454;-82
2023/10/29 12:44:54;;;;;;;2.53;0.60;;;16.80;99.90;;;;;;5093619;28;20968;-82
2023/10/29 12:47:22;;;;;;;0.90;0.80;;;16.90;99.90;;;;;;5093878;28;20451;-82
2023/10/29 12:50:03;;;;;;;0.80;0.80;;;17.00;99.90;;;;;;5093559;28;20447;-82
2023/10/29 12:52:30;;;;;;;0.53;0.53;;;16.90;99.90;;;;;;5093826;28;20421;-82
2023/10/29 12:54:58;;;;;;;6.23;0.93;;;17.00;99.90;;;;;;5093673;28;20464;-82